Time;durP1;ratioP1;P1;durP2;ratioP2;P2;SDS_P1;SDS_P2;PMS_P1;PMS_P2;Temp;Humidity;BMP_temperature;BMP_pressure;BME280_temperature;BME280_humidity;BME280_pressure;Samples;Min_cycle;Max_cycle;Signal;HPM_P1;HPM_P2
2023/03/11 00:01:47;;;;;;;12.75;2.55;;;;;;;;;;5053079;28;20028;-65
2023/03/11 00:04:13;;;;;;;10.85;3.35;;;;;;;;;;5051543;28;20398;-65
2023/03/11 00:06:38;;;;;;;8.25;3.08;;;;;;;;;;5053268;28;20025;-66
2023/03/11 00:09:04;;;;;;;13.35;3.58;;;;;;;;;;5051974;28;20032;-65
2023/03/11 00:11:29;;;;;;;11.35;2.80;;;;;;;;;;5051331;28;20021;-65
2023/03/11 00:13:54;;;;;;;5.25;2.30;;;;;;;;;;5051292;28;20029;-65
2023/03/11 00:16:19;;;;;;;12.73;3.50;;;;;;;;;;5051187;28;20475;-65
2023/03/11 00:18:45;;;;;;;10.45;3.05;;;;;;;;;;5051499;28;20025;-65
2023/03/11 00:21:15;;;;;;;7.43;3.00;;;;;;;;;;5049672;28;20029;-65
2023/03/11 00:23:40;;;;;;;17.45;3.58;;;;;;;;;;5048443;28;20039;-65
2023/03/11 00:26:05;;;;;;;11.48;3.22;;;;;;;;;;5042853;28;20022;-65
2023/03/11 00:28:30;;;;;;;15.48;3.70;;;;;;;;;;5037482;28;20070;-65
2023/03/11 00:30:56;;;;;;;13.38;3.13;;;;;;;;;;5043857;28;20483;-65
2023/03/11 00:33:21;;;;;;;9.70;3.00;;;;;;;;;;5051307;28;20461;-65
2023/03/11 00:35:46;;;;;;;10.35;3.38;;;;;;;;;;5035926;28;20029;-65
2023/03/11 00:38:14;;;;;;;10.52;2.70;;;;;;;;;;5039214;28;20021;-65
2023/03/11 00:40:39;;;;;;;12.52;2.60;;;;;;;;;;5034314;28;20025;-65
2023/03/11 00:43:05;;;;;;;12.60;2.88;;;;;;;;;;5047038;28;20029;-65
2023/03/11 00:45:30;;;;;;;14.10;3.03;;;;;;;;;;5032511;28;20041;-66
2023/03/11 00:47:56;;;;;;;19.35;3.95;;;;;;;;;;5035749;28;20387;-65
2023/03/11 00:50:25;;;;;;;11.35;3.40;;;;;;;;;;5040957;28;20025;-65
2023/03/11 00:52:51;;;;;;;5.20;2.63;;;;;;;;;;5036433;28;20032;-65
2023/03/11 00:55:19;;;;;;;8.32;3.03;;;;;;;;;;5032331;28;20025;-65
2023/03/11 00:57:44;;;;;;;8.63;3.25;;;;;;;;;;5046154;28;20041;-65
2023/03/11 01:00:14;;;;;;;8.77;2.95;;;;;;;;;;5034118;28;20107;-65
2023/03/11 01:02:39;;;;;;;11.20;3.53;;;;;;;;;;5032075;28;20030;-65
2023/03/11 01:05:05;;;;;;;10.85;4.15;;;;;;;;;;5043597;28;20025;-65
2023/03/11 01:07:32;;;;;;;8.77;2.63;;;;;;;;;;5034231;28;20029;-65
2023/03/11 01:09:57;;;;;;;17.73;3.53;;;;;;;;;;5052162;28;20021;-65
2023/03/11 01:12:22;;;;;;;8.75;3.50;;;;;;;;;;5051673;28;20489;-65
2023/03/11 01:14:48;;;;;;;17.10;3.75;;;;;;;;;;5052243;28;20072;-66
2023/03/11 01:17:13;;;;;;;13.23;3.28;;;;;;;;;;5038034;28;20029;-66
2023/03/11 01:19:38;;;;;;;12.38;4.40;;;;;;;;;;5033732;28;20053;-66
2023/03/11 01:22:04;;;;;;;13.15;4.07;;;;;;;;;;5035185;28;20029;-65
2023/03/11 01:24:29;;;;;;;15.57;3.35;;;;;;;;;;5044672;28;20029;-65
2023/03/11 01:26:54;;;;;;;8.55;3.10;;;;;;;;;;5033195;28;20049;-66
2023/03/11 01:29:19;;;;;;;12.70;2.92;;;;;;;;;;5054557;28;20028;-65
2023/03/11 01:31:45;;;;;;;12.07;3.88;;;;;;;;;;5054672;28;20029;-65
2023/03/11 01:34:11;;;;;;;8.57;3.55;;;;;;;;;;5055263;28;20025;-65
2023/03/11 01:36:36;;;;;;;10.77;4.15;;;;;;;;;;5054412;28;20028;-65
2023/03/11 01:39:02;;;;;;;8.25;3.92;;;;;;;;;;5048954;28;20018;-65
2023/03/11 01:41:27;;;;;;;13.02;4.03;;;;;;;;;;5045636;28;20025;-65
2023/03/11 01:43:56;;;;;;;10.25;3.83;;;;;;;;;;5054740;28;20033;-65
2023/03/11 01:46:30;;;;;;;13.52;4.45;;;;;;;;;;5054851;28;20427;-65
2023/03/11 01:48:57;;;;;;;9.00;3.47;;;;;;;;;;5055397;28;20124;-65
2023/03/11 01:51:36;;;;;;;11.30;4.35;;;;;;;;;;5055163;28;20021;-65
2023/03/11 01:54:06;;;;;;;15.10;4.00;;;;;;;;;;5055453;28;20107;-65
2023/03/11 01:56:31;;;;;;;11.65;4.55;;;;;;;;;;5055499;28;20021;-65
2023/03/11 01:58:57;;;;;;;9.60;3.90;;;;;;;;;;5042711;28;20108;-65
2023/03/11 02:01:22;;;;;;;11.20;3.30;;;;;;;;;;5035678;28;20029;-65
2023/03/11 02:03:48;;;;;;;9.57;5.15;;;;;;;;;;5034942;28;20459;-65
2023/03/11 02:06:16;;;;;;;11.88;4.70;;;;;;;;;;5054848;28;20033;-65
2023/03/11 02:08:42;;;;;;;18.80;5.18;;;;;;;;;;5054986;28;20028;-65
2023/03/11 02:11:09;;;;;;;11.00;4.50;;;;;;;;;;5048330;28;20017;-64
2023/03/11 02:13:35;;;;;;;11.70;3.85;;;;;;;;;;5035292;28;20423;-65
2023/03/11 02:16:02;;;;;;;9.05;3.95;;;;;;;;;;5040583;28;20047;-65
2023/03/11 02:18:27;;;;;;;18.50;4.63;;;;;;;;;;5054961;28;20059;-65
2023/03/11 02:20:56;;;;;;;7.03;3.85;;;;;;;;;;5035996;28;20052;-65
2023/03/11 02:23:23;;;;;;;9.63;3.78;;;;;;;;;;5035361;28;20021;-65
2023/03/11 02:25:58;;;;;;;10.13;3.85;;;;;;;;;;5041769;28;20069;-64
2023/03/11 02:28:24;;;;;;;9.57;4.95;;;;;;;;;;5040914;28;20400;-64
2023/03/11 02:30:51;;;;;;;18.90;4.75;;;;;;;;;;5054614;28;20100;-64
2023/03/11 02:33:17;;;;;;;16.33;5.00;;;;;;;;;;5054174;28;20480;-64
2023/03/11 02:35:42;;;;;;;11.63;4.93;;;;;;;;;;5054016;28;20044;-64
2023/03/11 02:38:08;;;;;;;15.27;4.85;;;;;;;;;;5053585;28;20021;-64
2023/03/11 02:40:42;;;;;;;17.95;5.07;;;;;;;;;;5054314;28;20086;-65
2023/03/11 02:43:13;;;;;;;13.55;4.47;;;;;;;;;;5054314;28;20085;-64
2023/03/11 02:45:39;;;;;;;12.43;5.18;;;;;;;;;;5044326;28;20029;-63
2023/03/11 02:48:06;;;;;;;11.18;5.47;;;;;;;;;;5034711;28;20021;-64
2023/03/11 02:50:33;;;;;;;11.48;4.68;;;;;;;;;;5034835;28;20412;-64
2023/03/11 02:52:58;;;;;;;19.65;6.00;;;;;;;;;;5034800;28;20021;-63
2023/03/11 02:55:24;;;;;;;11.10;5.07;;;;;;;;;;5034214;28;20476;-63
2023/03/11 02:57:49;;;;;;;15.20;5.60;;;;;;;;;;5033933;28;20037;-63
2023/03/11 03:00:15;;;;;;;16.27;5.50;;;;;;;;;;5044579;28;20028;-63
2023/03/11 03:02:41;;;;;;;16.10;4.97;;;;;;;;;;5054045;28;20108;-66
2023/03/11 03:05:07;;;;;;;15.35;5.25;;;;;;;;;;5053899;28;20107;-63
2023/03/11 03:07:33;;;;;;;15.93;5.47;;;;;;;;;;5052002;28;20111;-64
2023/03/11 03:09:58;;;;;;;16.52;5.25;;;;;;;;;;5053448;28;20025;-65
2023/03/11 03:12:23;;;;;;;17.23;6.10;;;;;;;;;;5038371;28;20033;-64
2023/03/11 03:14:49;;;;;;;11.57;5.63;;;;;;;;;;5043325;28;20503;-65
2023/03/11 03:17:14;;;;;;;23.77;6.25;;;;;;;;;;5051850;28;20028;-64
2023/03/11 03:19:39;;;;;;;16.67;5.90;;;;;;;;;;5054046;28;20468;-63
2023/03/11 03:22:05;;;;;;;11.73;5.60;;;;;;;;;;5051974;28;20021;-64
2023/03/11 03:24:30;;;;;;;11.52;5.60;;;;;;;;;;5033662;28;20071;-64
2023/03/11 03:26:55;;;;;;;17.33;5.97;;;;;;;;;;5047270;28;20464;-64
2023/03/11 03:29:20;;;;;;;16.35;5.85;;;;;;;;;;5046994;28;20036;-64
2023/03/11 03:31:46;;;;;;;18.38;6.43;;;;;;;;;;5052244;28;20036;-63
2023/03/11 03:34:11;;;;;;;23.02;6.88;;;;;;;;;;5053367;28;20032;-63
2023/03/11 03:36:36;;;;;;;14.00;6.88;;;;;;;;;;5052470;28;20029;-63
2023/03/11 03:39:02;;;;;;;21.40;7.22;;;;;;;;;;5052287;28;20024;-62
2023/03/11 03:41:28;;;;;;;16.30;6.90;;;;;;;;;;5049589;28;20029;-63
2023/03/11 03:43:53;;;;;;;19.85;7.03;;;;;;;;;;5051588;28;20090;-62
2023/03/11 03:46:19;;;;;;;20.27;6.45;;;;;;;;;;5050215;28;20025;-62
2023/03/11 03:48:44;;;;;;;20.48;7.22;;;;;;;;;;5051573;28;20025;-62
2023/03/11 03:51:11;;;;;;;16.90;7.05;;;;;;;;;;5049596;28;20028;-62
2023/03/11 03:53:36;;;;;;;20.40;7.40;;;;;;;;;;5052704;28;20025;-63
2023/03/11 03:56:03;;;;;;;14.40;7.05;;;;;;;;;;5052689;28;20443;-63
2023/03/11 03:58:28;;;;;;;18.50;7.82;;;;;;;;;;5052304;28;20021;-63
2023/03/11 04:00:57;;;;;;;24.63;8.55;;;;;;;;;;5048819;28;20029;-63
2023/03/11 04:03:23;;;;;;;14.27;7.88;;;;;;;;;;5048732;28;20025;-63
2023/03/11 04:05:48;;;;;;;20.60;9.15;;;;;;;;;;5052805;28;20082;-63
2023/03/11 04:08:13;;;;;;;18.15;8.25;;;;;;;;;;5051125;28;20064;-63
2023/03/11 04:10:38;;;;;;;16.08;7.80;;;;;;;;;;5042996;28;20025;-63
2023/03/11 04:13:04;;;;;;;22.65;8.88;;;;;;;;;;5043610;28;20474;-63
2023/03/11 04:15:29;;;;;;;18.20;7.95;;;;;;;;;;5047858;28;20032;-63
2023/03/11 04:17:54;;;;;;;21.92;8.32;;;;;;;;;;5042529;28;20549;-63
2023/03/11 04:20:20;;;;;;;24.42;9.98;;;;;;;;;;5047026;28;20017;-63
2023/03/11 04:22:45;;;;;;;18.13;9.27;;;;;;;;;;5043029;28;20142;-63
2023/03/11 04:25:10;;;;;;;27.25;8.35;;;;;;;;;;5047389;28;20040;-64
2023/03/11 04:27:37;;;;;;;18.70;7.60;;;;;;;;;;5038818;28;20103;-63
2023/03/11 04:30:03;;;;;;;19.55;8.73;;;;;;;;;;5033300;28;20029;-63
2023/03/11 04:32:28;;;;;;;17.60;8.27;;;;;;;;;;5033621;28;20033;-63
2023/03/11 04:34:53;;;;;;;22.30;8.73;;;;;;;;;;5033428;28;20052;-63
2023/03/11 04:37:18;;;;;;;15.02;7.75;;;;;;;;;;5033081;28;20049;-63
2023/03/11 04:39:44;;;;;;;15.38;6.82;;;;;;;;;;5032462;28;20369;-63
2023/03/11 04:42:09;;;;;;;20.60;8.48;;;;;;;;;;5033024;28;20057;-63
2023/03/11 04:44:35;;;;;;;17.63;8.50;;;;;;;;;;5032986;28;20479;-63
2023/03/11 04:47:00;;;;;;;21.15;9.23;;;;;;;;;;5032974;28;20041;-63
2023/03/11 04:49:25;;;;;;;17.40;8.63;;;;;;;;;;5040932;28;20025;-63
2023/03/11 04:51:50;;;;;;;19.15;8.98;;;;;;;;;;5038040;28;20032;-63
2023/03/11 04:54:16;;;;;;;14.02;8.30;;;;;;;;;;5040339;28;20097;-63
2023/03/11 04:56:41;;;;;;;15.90;7.68;;;;;;;;;;5033125;28;20491;-63
2023/03/11 04:59:06;;;;;;;21.60;9.02;;;;;;;;;;5032611;28;20056;-62
2023/03/11 05:01:32;;;;;;;20.02;9.52;;;;;;;;;;5047419;28;20360;-62
2023/03/11 05:03:57;;;;;;;15.07;7.47;;;;;;;;;;5056295;28;20112;-62
2023/03/11 05:06:22;;;;;;;15.60;8.32;;;;;;;;;;5055478;28;20025;-62
2023/03/11 05:08:47;;;;;;;14.20;7.55;;;;;;;;;;5055935;28;20021;-62
2023/03/11 05:11:13;;;;;;;14.63;7.90;;;;;;;;;;5049885;28;20535;-62
2023/03/11 05:13:38;;;;;;;15.32;8.57;;;;;;;;;;5035152;28;20036;-63
2023/03/11 05:16:03;;;;;;;25.27;9.13;;;;;;;;;;5041567;28;20032;-62
2023/03/11 05:18:30;;;;;;;14.85;7.78;;;;;;;;;;5055119;28;20116;-62
2023/03/11 05:20:56;;;;;;;25.35;10.25;;;;;;;;;;5054697;28;20150;-62
2023/03/11 05:23:21;;;;;;;19.13;10.23;;;;;;;;;;5056004;28;20104;-62
2023/03/11 05:25:46;;;;;;;18.90;9.32;;;;;;;;;;5055844;28;20040;-62
2023/03/11 05:28:12;;;;;;;12.18;7.97;;;;;;;;;;5056213;28;20478;-62
2023/03/11 05:30:37;;;;;;;22.92;9.57;;;;;;;;;;5055466;28;20025;-62
2023/03/11 05:33:02;;;;;;;17.80;9.13;;;;;;;;;;5055566;28;20021;-62
2023/03/11 05:35:27;;;;;;;16.58;9.45;;;;;;;;;;5055829;28;20029;-62
2023/03/11 05:37:53;;;;;;;21.90;9.82;;;;;;;;;;5055540;28;20486;-62
2023/03/11 05:40:19;;;;;;;18.55;10.02;;;;;;;;;;5055147;28;20017;-62
2023/03/11 05:42:44;;;;;;;21.65;9.23;;;;;;;;;;5042068;28;20072;-62
2023/03/11 05:45:10;;;;;;;15.38;9.43;;;;;;;;;;5055776;28;20037;-62
2023/03/11 05:47:35;;;;;;;12.07;8.57;;;;;;;;;;5055182;28;20029;-61
2023/03/11 05:50:00;;;;;;;17.45;9.32;;;;;;;;;;5042759;28;20037;-62
2023/03/11 05:52:26;;;;;;;14.18;9.05;;;;;;;;;;5036412;28;20079;-62
2023/03/11 05:54:51;;;;;;;21.05;10.30;;;;;;;;;;5036122;28;20032;-62
2023/03/11 05:57:20;;;;;;;18.60;9.50;;;;;;;;;;5036660;28;20033;-61
2023/03/11 05:59:45;;;;;;;21.00;10.73;;;;;;;;;;5036323;28;20021;-62
2023/03/11 06:02:11;;;;;;;27.88;9.85;;;;;;;;;;5036460;28;20020;-61
2023/03/11 06:04:36;;;;;;;15.25;9.23;;;;;;;;;;5036809;28;20037;-61
2023/03/11 06:07:02;;;;;;;17.95;10.40;;;;;;;;;;5036672;28;20025;-62
2023/03/11 06:09:27;;;;;;;21.67;10.68;;;;;;;;;;5040344;28;20033;-62
2023/03/11 06:11:52;;;;;;;21.75;10.82;;;;;;;;;;5054926;28;20040;-61
2023/03/11 06:14:18;;;;;;;15.95;10.25;;;;;;;;;;5037801;28;20018;-62
2023/03/11 06:16:43;;;;;;;18.52;11.02;;;;;;;;;;5054061;28;20395;-62
2023/03/11 06:19:08;;;;;;;27.10;13.40;;;;;;;;;;5041533;28;20020;-61
2023/03/11 06:21:33;;;;;;;26.63;13.52;;;;;;;;;;5054943;28;20033;-61
2023/03/11 06:23:59;;;;;;;23.15;13.55;;;;;;;;;;5053416;28;20387;-61
2023/03/11 06:26:24;;;;;;;19.17;13.07;;;;;;;;;;5054869;28;20059;-61
2023/03/11 06:28:50;;;;;;;25.30;15.15;;;;;;;;;;5053386;28;20036;-62
2023/03/11 06:31:20;;;;;;;31.85;15.52;;;;;;;;;;5054258;28;20017;-62
2023/03/11 06:33:46;;;;;;;22.55;14.82;;;;;;;;;;5054837;28;20064;-61
2023/03/11 06:36:12;;;;;;;27.98;14.98;;;;;;;;;;5054489;28;20070;-62
2023/03/11 06:38:38;;;;;;;22.75;15.45;;;;;;;;;;5054441;28;20139;-62
2023/03/11 06:41:04;;;;;;;25.65;14.07;;;;;;;;;;5054186;28;20485;-61
2023/03/11 06:43:30;;;;;;;24.45;14.00;;;;;;;;;;5053960;28;20037;-62
2023/03/11 06:45:56;;;;;;;31.02;14.52;;;;;;;;;;5054541;28;20426;-62
2023/03/11 06:48:21;;;;;;;42.63;15.35;;;;;;;;;;5054169;28;20379;-61
2023/03/11 06:50:56;;;;;;;25.63;15.25;;;;;;;;;;5053806;28;20017;-62
2023/03/11 06:53:22;;;;;;;26.98;14.02;;;;;;;;;;5048416;28;20072;-62
2023/03/11 06:56:00;;;;;;;27.52;15.77;;;;;;;;;;5044562;28;20033;-62
2023/03/11 06:58:26;;;;;;;28.63;15.88;;;;;;;;;;5050575;28;20025;-62
2023/03/11 07:00:51;;;;;;;26.85;16.42;;;;;;;;;;5054388;28;20518;-61
2023/03/11 07:03:16;;;;;;;47.67;17.25;;;;;;;;;;5050171;28;20023;-62
2023/03/11 07:05:41;;;;;;;35.85;16.88;;;;;;;;;;5041465;28;20041;-62
2023/03/11 07:08:07;;;;;;;26.88;16.30;;;;;;;;;;5046738;28;20398;-62
2023/03/11 07:10:32;;;;;;;27.77;15.85;;;;;;;;;;5053732;28;20033;-62
2023/03/11 07:12:57;;;;;;;35.05;16.13;;;;;;;;;;5052897;28;20025;-62
2023/03/11 07:15:22;;;;;;;25.73;17.85;;;;;;;;;;5052696;28;20029;-62
2023/03/11 07:17:48;;;;;;;26.75;18.05;;;;;;;;;;5052397;28;20480;-62
2023/03/11 07:20:13;;;;;;;33.53;18.77;;;;;;;;;;5052506;28;20052;-62
2023/03/11 07:22:38;;;;;;;30.35;18.35;;;;;;;;;;5051846;28;20055;-62
2023/03/11 07:25:04;;;;;;;32.63;19.10;;;;;;;;;;5048951;28;20056;-62
2023/03/11 07:27:29;;;;;;;31.80;19.90;;;;;;;;;;5044972;28;20021;-62
2023/03/11 07:29:54;;;;;;;31.58;19.88;;;;;;;;;;5044148;28;20021;-62
2023/03/11 07:32:19;;;;;;;33.70;20.00;;;;;;;;;;5049533;28;20443;-62
2023/03/11 07:34:45;;;;;;;37.85;21.90;;;;;;;;;;5048184;28;20018;-62
2023/03/11 07:37:10;;;;;;;28.65;21.27;;;;;;;;;;5049100;28;20040;-62
2023/03/11 07:39:35;;;;;;;35.05;22.45;;;;;;;;;;5047210;28;20533;-62
2023/03/11 07:42:00;;;;;;;35.63;23.20;;;;;;;;;;5046262;28;20025;-62
2023/03/11 07:44:26;;;;;;;38.45;22.17;;;;;;;;;;5051839;28;20025;-62
2023/03/11 07:46:51;;;;;;;35.55;24.60;;;;;;;;;;5046270;28;20513;-62
2023/03/11 07:49:16;;;;;;;35.72;22.40;;;;;;;;;;5039847;28;20032;-62
2023/03/11 07:51:42;;;;;;;40.97;23.00;;;;;;;;;;5043696;28;20029;-62
2023/03/11 07:54:09;;;;;;;31.00;21.98;;;;;;;;;;5038525;28;20025;-62
2023/03/11 07:56:34;;;;;;;36.03;21.48;;;;;;;;;;5043094;28;20375;-62
2023/03/11 07:59:00;;;;;;;32.63;21.88;;;;;;;;;;5049452;28;20024;-62
2023/03/11 08:01:29;;;;;;;32.58;20.52;;;;;;;;;;5050683;28;20021;-62
2023/03/11 08:03:56;;;;;;;24.13;19.77;;;;;;;;;;5046166;28;20025;-62
2023/03/11 08:06:23;;;;;;;29.60;17.50;;;;;;;;;;5048106;28;20487;-62
2023/03/11 08:08:49;;;;;;;27.90;17.30;;;;;;;;;;5045634;28;20021;-63
2023/03/11 08:11:15;;;;;;;26.55;14.60;;;;;;;;;;5047131;28;20055;-63
2023/03/11 08:13:40;;;;;;;22.83;14.77;;;;;;;;;;5048785;28;20029;-63
2023/03/11 08:16:07;;;;;;;23.50;12.60;;;;;;;;;;5039673;28;20496;-63
2023/03/11 08:18:33;;;;;;;22.40;12.73;;;;;;;;;;5038462;28;20059;-63
2023/03/11 08:20:58;;;;;;;23.98;10.57;;;;;;;;;;5043449;28;20032;-63
2023/03/11 08:23:23;;;;;;;22.52;11.45;;;;;;;;;;5039110;28;20025;-63
2023/03/11 08:25:49;;;;;;;15.20;9.77;;;;;;;;;;5045832;28;20029;-63
2023/03/11 08:28:14;;;;;;;15.10;8.82;;;;;;;;;;5033040;28;20361;-64
2023/03/11 08:30:40;;;;;;;16.02;7.95;;;;;;;;;;5032976;28;20021;-63
2023/03/11 08:33:05;;;;;;;18.30;7.97;;;;;;;;;;5032784;28;20112;-63
2023/03/11 08:35:31;;;;;;;12.68;6.50;;;;;;;;;;5033245;28;20124;-63
2023/03/11 08:37:56;;;;;;;9.80;4.47;;;;;;;;;;5046544;28;20025;-63
2023/03/11 08:40:22;;;;;;;7.78;3.80;;;;;;;;;;5045326;28;20056;-63
2023/03/11 08:42:47;;;;;;;9.50;4.68;;;;;;;;;;5038541;28;20504;-63
2023/03/11 08:45:12;;;;;;;7.18;3.95;;;;;;;;;;5052457;28;20430;-63
2023/03/11 08:47:38;;;;;;;13.20;3.92;;;;;;;;;;5050471;28;20029;-63
2023/03/11 08:50:05;;;;;;;5.10;3.25;;;;;;;;;;5051258;28;20589;-63
2023/03/11 08:52:30;;;;;;;9.95;2.90;;;;;;;;;;5049922;28;20033;-64
2023/03/11 08:54:55;;;;;;;12.15;3.40;;;;;;;;;;5051154;28;20086;-63
2023/03/11 08:57:21;;;;;;;6.72;3.10;;;;;;;;;;5049039;28;20434;-64
2023/03/11 08:59:46;;;;;;;10.77;3.45;;;;;;;;;;5050958;28;20040;-64
2023/03/11 09:02:11;;;;;;;7.05;2.45;;;;;;;;;;5049758;28;20040;-63
2023/03/11 09:04:36;;;;;;;12.52;2.50;;;;;;;;;;5052041;28;20037;-64
2023/03/11 09:07:02;;;;;;;6.30;1.70;;;;;;;;;;5049083;28;20087;-64
2023/03/11 09:09:27;;;;;;;11.13;2.50;;;;;;;;;;5051002;28;20031;-64
2023/03/11 09:11:52;;;;;;;10.10;1.80;;;;;;;;;;5040751;28;20064;-64
2023/03/11 09:14:18;;;;;;;4.13;1.80;;;;;;;;;;5050000;28;20021;-64
2023/03/11 09:16:43;;;;;;;5.18;1.70;;;;;;;;;;5052390;28;20543;-64
2023/03/11 09:19:08;;;;;;;11.20;1.90;;;;;;;;;;5047018;28;20014;-64
2023/03/11 09:21:34;;;;;;;3.95;1.85;;;;;;;;;;5032653;28;20482;-64
2023/03/11 09:23:59;;;;;;;9.65;2.10;;;;;;;;;;5036769;28;20048;-64
2023/03/11 09:26:25;;;;;;;8.57;2.17;;;;;;;;;;5044881;28;20055;-64
2023/03/11 09:28:50;;;;;;;5.32;2.10;;;;;;;;;;5044620;28;20025;-64
2023/03/11 09:31:15;;;;;;;3.40;1.30;;;;;;;;;;5043644;28;20025;-64
2023/03/11 09:33:41;;;;;;;6.75;1.33;;;;;;;;;;5041804;28;20025;-64
2023/03/11 09:36:07;;;;;;;9.35;1.27;;;;;;;;;;5051248;28;20025;-64
2023/03/11 09:38:32;;;;;;;2.90;1.02;;;;;;;;;;5037187;28;20049;-64
2023/03/11 09:40:58;;;;;;;9.15;1.50;;;;;;;;;;5038592;28;20079;-64
2023/03/11 09:43:23;;;;;;;5.07;1.27;;;;;;;;;;5037310;28;20502;-64
2023/03/11 09:45:54;;;;;;;6.68;1.67;;;;;;;;;;5042118;28;20026;-64
2023/03/11 09:48:52;;;;;;;9.70;1.80;;;;;;;;;;5046156;28;20064;-64
2023/03/11 09:51:37;;;;;;;2.20;0.88;;;;;;;;;;5036656;28;20042;-64
2023/03/11 09:54:03;;;;;;;14.25;2.20;;;;;;;;;;5042520;28;20464;-64
2023/03/11 09:56:30;;;;;;;5.68;1.45;;;;;;;;;;5047799;28;20124;-64
2023/03/11 09:58:58;;;;;;;2.95;1.10;;;;;;;;;;5051776;28;20033;-64
2023/03/11 10:01:32;;;;;;;3.65;1.27;;;;;;;;;;5055175;28;20055;-64
2023/03/11 10:04:07;;;;;;;3.35;1.17;;;;;;;;;;5054985;28;20033;-64
2023/03/11 10:06:32;;;;;;;5.75;1.83;;;;;;;;;;5054966;28;20021;-64
2023/03/11 10:09:07;;;;;;;3.92;1.80;;;;;;;;;;5048674;28;20024;-64
2023/03/11 10:11:35;;;;;;;4.13;1.55;;;;;;;;;;5053249;28;20482;-64
2023/03/11 10:14:11;;;;;;;6.18;1.38;;;;;;;;;;5051146;28;20422;-64
2023/03/11 10:16:41;;;;;;;6.00;1.88;;;;;;;;;;5052141;28;20052;-64
2023/03/11 10:19:07;;;;;;;7.25;1.80;;;;;;;;;;5053620;28;20021;-64
2023/03/11 10:22:12;;;;;;;4.50;1.50;;;;;;;;;;5047812;28;20036;-64
2023/03/11 10:24:37;;;;;;;5.68;1.65;;;;;;;;;;5011376;28;20491;-65
2023/03/11 10:27:08;;;;;;;9.95;1.65;;;;;;;;;;5009136;28;20030;-65
2023/03/11 10:29:41;;;;;;;3.55;1.13;;;;;;;;;;5033230;28;20095;-65
2023/03/11 10:32:06;;;;;;;1.75;0.75;;;;;;;;;;5050832;28;20025;-65
2023/03/11 10:34:37;;;;;;;2.60;0.95;;;;;;;;;;5053300;28;20061;-65
2023/03/11 10:37:02;;;;;;;4.10;1.00;;;;;;;;;;5052306;28;20028;-65
2023/03/11 10:39:29;;;;;;;3.38;0.98;;;;;;;;;;5052282;28;20025;-65
2023/03/11 10:41:56;;;;;;;5.30;1.65;;;;;;;;;;5051987;28;20096;-65
2023/03/11 10:44:27;;;;;;;3.33;1.33;;;;;;;;;;5050611;28;20418;-65
2023/03/11 10:46:52;;;;;;;4.45;1.25;;;;;;;;;;5046317;28;20361;-65
2023/03/11 10:49:17;;;;;;;3.03;1.33;;;;;;;;;;5040113;28;20032;-65
2023/03/11 10:51:52;;;;;;;3.88;1.20;;;;;;;;;;5047071;28;20025;-65
2023/03/11 10:54:22;;;;;;;3.92;1.23;;;;;;;;;;5049206;28;20044;-65
2023/03/11 10:56:52;;;;;;;6.88;1.10;;;;;;;;;;5046636;28;20032;-66
2023/03/11 10:59:20;;;;;;;3.65;1.08;;;;;;;;;;5050189;28;20132;-66
2023/03/11 11:01:53;;;;;;;2.92;1.20;;;;;;;;;;5051995;28;20474;-66
2023/03/11 11:04:38;;;;;;;7.95;1.55;;;;;;;;;;5051743;28;20033;-66
2023/03/11 11:07:39;;;;;;;6.60;1.17;;;;;;;;;;5049403;28;20017;-65
2023/03/11 11:10:10;;;;;;;4.00;1.23;;;;;;;;;;5030577;28;20026;-65
2023/03/11 11:12:36;;;;;;;3.00;0.90;;;;;;;;;;5046437;28;20498;-65
2023/03/11 11:15:01;;;;;;;3.97;1.40;;;;;;;;;;5047305;28;20052;-65
2023/03/11 11:17:31;;;;;;;6.63;1.10;;;;;;;;;;5047371;28;20440;-65
2023/03/11 11:19:57;;;;;;;5.57;1.50;;;;;;;;;;5044530;28;20049;-65
2023/03/11 11:22:23;;;;;;;3.60;1.02;;;;;;;;;;5041119;28;20100;-66
2023/03/11 11:24:50;;;;;;;9.55;1.33;;;;;;;;;;5047130;28;20052;-65
2023/03/11 11:27:15;;;;;;;4.78;1.23;;;;;;;;;;5041218;28;20539;-66
2023/03/11 11:29:41;;;;;;;9.00;1.30;;;;;;;;;;5049118;28;20039;-65
2023/03/11 11:32:24;;;;;;;2.50;0.95;;;;;;;;;;5042359;28;20095;-65
2023/03/11 11:34:57;;;;;;;9.15;1.35;;;;;;;;;;5042459;28;20108;-65
2023/03/11 11:37:25;;;;;;;3.42;1.13;;;;;;;;;;5045170;28;20021;-65
2023/03/11 11:39:56;;;;;;;6.85;1.95;;;;;;;;;;5047578;28;20051;-64
2023/03/11 11:42:23;;;;;;;7.50;1.52;;;;;;;;;;5046133;28;20021;-65
2023/03/11 11:44:51;;;;;;;3.45;1.30;;;;;;;;;;5039564;28;20033;-65
2023/03/11 11:47:37;;;;;;;3.67;1.27;;;;;;;;;;5041174;28;20026;-66
2023/03/11 11:50:04;;;;;;;5.22;1.42;;;;;;;;;;5047571;28;20064;-66
2023/03/11 11:52:31;;;;;;;3.30;1.20;;;;;;;;;;5047723;28;20025;-66
2023/03/11 11:55:17;;;;;;;5.15;1.40;;;;;;;;;;5047941;28;20513;-66
2023/03/11 11:57:42;;;;;;;4.05;1.38;;;;;;;;;;5047537;28;20025;-65
2023/03/11 12:00:19;;;;;;;4.10;1.30;;;;;;;;;;5050023;28;20081;-66
2023/03/11 12:02:59;;;;;;;2.67;0.95;;;;;;;;;;5042908;28;20380;-66
2023/03/11 12:05:32;;;;;;;3.28;1.10;;;;;;;;;;5048564;28;20029;-66
2023/03/11 12:08:27;;;;;;;4.80;1.20;;;;;;;;;;5046917;28;20037;-64
2023/03/11 12:11:01;;;;;;;3.88;1.20;;;;;;;;;;5039069;28;20152;-64
2023/03/11 12:13:38;;;;;;;2.80;1.42;;;;;;;;;;5048156;28;20029;-65
2023/03/11 12:16:18;;;;;;;4.05;1.45;;;;;;;;;;5048037;28;20040;-64
2023/03/11 12:18:50;;;;;;;4.82;1.50;;;;;;;;;;5048116;28;20108;-64
2023/03/11 12:21:30;;;;;;;3.25;1.23;;;;;;;;;;5044138;28;20112;-65
2023/03/11 12:23:56;;;;;;;3.00;1.02;;;;;;;;;;5033015;28;20044;-65
2023/03/11 12:26:23;;;;;;;4.47;1.42;;;;;;;;;;5047964;28;20531;-65
2023/03/11 12:28:55;;;;;;;2.55;0.90;;;;;;;;;;5048759;28;20065;-65
2023/03/11 12:31:21;;;;;;;5.10;1.33;;;;;;;;;;5032704;28;20017;-65
2023/03/11 12:33:51;;;;;;;2.55;1.00;;;;;;;;;;5033574;28;20018;-65
2023/03/11 12:36:24;;;;;;;3.05;1.05;;;;;;;;;;5030213;28;20041;-65
2023/03/11 12:38:50;;;;;;;7.65;1.38;;;;;;;;;;5023284;28;20031;-65
2023/03/11 12:41:27;;;;;;;5.57;1.30;;;;;;;;;;5040872;28;20108;-67
2023/03/11 12:43:52;;;;;;;7.30;1.30;;;;;;;;;;5035422;28;20025;-65
2023/03/11 12:46:17;;;;;;;3.05;1.05;;;;;;;;;;5042044;28;20040;-65
2023/03/11 12:48:48;;;;;;;5.40;1.33;;;;;;;;;;5047045;28;20103;-65
2023/03/11 12:51:26;;;;;;;4.07;1.25;;;;;;;;;;5039672;28;20375;-65
2023/03/11 12:53:52;;;;;;;2.65;0.88;;;;;;;;;;5046135;28;20044;-65
2023/03/11 12:56:35;;;;;;;2.28;0.93;;;;;;;;;;5051343;28;20475;-65
2023/03/11 12:59:08;;;;;;;3.15;1.10;;;;;;;;;;5047334;28;20028;-65
2023/03/11 13:01:43;;;;;;;3.95;1.73;;;;;;;;;;5043304;28;20024;-66
2023/03/11 13:04:20;;;;;;;3.63;1.00;;;;;;;;;;5043076;28;20021;-66
2023/03/11 13:06:51;;;;;;;2.80;1.30;;;;;;;;;;5046116;28;20013;-66
2023/03/11 13:09:16;;;;;;;4.22;0.98;;;;;;;;;;5045486;28;20048;-66
2023/03/11 13:11:45;;;;;;;2.88;0.90;;;;;;;;;;5034137;28;20487;-66
2023/03/11 13:14:14;;;;;;;2.47;0.95;;;;;;;;;;5034589;28;20704;-66
2023/03/11 13:16:40;;;;;;;3.17;1.02;;;;;;;;;;5045683;28;20101;-66
2023/03/11 13:19:26;;;;;;;4.18;1.10;;;;;;;;;;5034600;28;20105;-67
2023/03/11 13:21:52;;;;;;;3.13;0.90;;;;;;;;;;5034518;28;20037;-67
2023/03/11 13:24:17;;;;;;;4.45;1.02;;;;;;;;;;5041599;28;20039;-66
2023/03/11 13:26:49;;;;;;;4.50;1.37;;;;;;;;;;5053519;28;20391;-66
2023/03/11 13:29:17;;;;;;;2.83;0.98;;;;;;;;;;5042346;28;20677;-66
2023/03/11 13:31:51;;;;;;;2.13;0.77;;;;;;;;;;5044403;28;20063;-66
2023/03/11 13:34:16;;;;;;;1.88;0.82;;;;;;;;;;5048203;28;20029;-66
2023/03/11 13:36:53;;;;;;;3.30;1.33;;;;;;;;;;5041767;28;20040;-66
2023/03/11 13:39:39;;;;;;;3.22;1.10;;;;;;;;;;5035582;28;20272;-66
2023/03/11 13:42:37;;;;;;;5.50;1.13;;;;;;;;;;5034186;28;20041;-66
2023/03/11 13:45:05;;;;;;;4.50;1.08;;;;;;;;;;5035640;28;20048;-66
2023/03/11 13:47:31;;;;;;;3.03;1.20;;;;;;;;;;5039717;28;20033;-67
2023/03/11 13:50:08;;;;;;;5.55;1.33;;;;;;;;;;5044737;28;20078;-66
2023/03/11 13:52:33;;;;;;;2.47;1.38;;;;;;;;;;5053243;28;20032;-66
2023/03/11 13:54:58;;;;;;;3.38;1.35;;;;;;;;;;5046081;28;20109;-67
2023/03/11 13:57:26;;;;;;;3.37;1.47;;;;;;;;;;5036172;28;20071;-65
2023/03/11 13:59:53;;;;;;;4.43;1.40;;;;;;;;;;5035922;28;20355;-65
2023/03/11 14:02:20;;;;;;;3.20;1.20;;;;;;;;;;5045785;28;20452;-67
2023/03/11 14:04:49;;;;;;;2.45;1.20;;;;;;;;;;5043612;28;20087;-65
2023/03/11 14:07:25;;;;;;;3.28;1.40;;;;;;;;;;5043959;28;20029;-66
2023/03/11 14:09:51;;;;;;;2.88;1.23;;;;;;;;;;5049428;28;20112;-65
2023/03/11 14:12:17;;;;;;;4.28;1.50;;;;;;;;;;5037954;28;20129;-65
2023/03/11 14:14:42;;;;;;;2.58;1.40;;;;;;;;;;5046948;28;20454;-65
2023/03/11 14:17:11;;;;;;;5.00;1.60;;;;;;;;;;5044029;28;20017;-64
2023/03/11 14:19:37;;;;;;;4.07;1.58;;;;;;;;;;5043408;28;20283;-66
2023/03/11 14:22:06;;;;;;;4.88;1.65;;;;;;;;;;5051081;28;20113;-66
2023/03/11 14:24:31;;;;;;;3.97;1.52;;;;;;;;;;5050617;28;20087;-66
2023/03/11 14:26:58;;;;;;;6.00;1.80;;;;;;;;;;5051317;28;20025;-67
2023/03/11 14:29:34;;;;;;;3.03;1.38;;;;;;;;;;5046985;28;20268;-65
2023/03/11 14:32:00;;;;;;;6.43;1.67;;;;;;;;;;5038997;28;20063;-65
2023/03/11 14:34:26;;;;;;;2.60;1.05;;;;;;;;;;5047364;28;20068;-65
2023/03/11 14:36:54;;;;;;;6.53;1.67;;;;;;;;;;5042523;28;20092;-65